KISP/ISP METAR and TAF weather

Enter ICAO airport designator
Station Type Date Time Source
KISP METAR 2021/05/10 01:56 UTC NOAA

KISP 100156Z 13007KT 4SM RA BR SCT008 SCT024 OVC037 09/09 A2995 RMK AO2 SLP140 P0015 T00940089


Station Type Date Time Source
KISP Decoded METAR 2021/05/10 01:56 UTC NOAA

ISLIP LONG ISLAND MAC ART, NY, United States (KISP) 40-48N 073-06W 43M
May 09, 2021 - 09:56 PM EDT / 2021.05.10 0156 UTC
Wind: from the SE (130 degrees) at 8 MPH (7 KT):0
Visibility: 4 mile(s):0
Sky conditions: overcast
Weather: rain; mist
Precipitation last hour: 0.15 inches
Temperature: 48.9 F (9.4 C)
Dew Point: 48.0 F (8.9 C)
Relative Humidity: 96%
Pressure (altimeter): 29.95 in. Hg (1014 hPa)
ob: KISP 100156Z 13007KT 4SM RA BR SCT008 SCT024 OVC037 09/09 A2995 RMK AO2 SLP140 P0015 T00940089
cycle: 2

Station Type Date Time Source
KISP TAF 2021/05/10 02:12 UTC NOAA

TAF
AMD KISP 100210Z 1002/1024 12009KT 5SM -RA BR SCT008 OVC035
FM100400 12010KT 5SM -RA BR SCT008 BKN025
TEMPO 1005/1006 BKN008
FM100600 10013KT 5SM -RA BR OVC008
FM100900 01010KT 5SM -RA BR OVC008
FM101200 36011KT P6SM OVC015
FM101600 34009KT P6SM OVC025
FM101800 32009KT P6SM BKN035
FM102000 26008KT P6SM BKN035
FM102300 25006KT P6SM SCT035 SCT080

Example: see airport list